Terminal Aerodrome Forecast
Issued by NWS Charleston, WV

Current Version | Previous Version | Graphics & Text | Print | Product List | Glossary On
Versions: 1 2 3 4 5 6 7 8 9 10 11 12 13 14 15 16 17 18 19 20 21
316
FTUS41 KRLX 230245 AAB
TAFCRW
TAF AMD
KCRW 230245Z 2302/2324 06004KT P6SM SCT100
     FM230700 05005KT 5SM BR FEW001 SCT050 BKN150
     FM231300 08004KT P6SM BKN025
     FM231700 09005KT 6SM SHRA OVC025=

USA.gov is the U.S. government's official web portal to all federal, state and local government web resources and services.